M I D A S
Marine Information and Data Acquisition System
Tripno 1648 of the Zeeleeuw from 2009-02-27 08:53:17 to 2009-02-27 17:11:21
Back to CruiseResearch ActivitiesStationsMapUnderway DataData graphs

EquipmentUnitsComment
TimeDGPSUTC
LatitudeDGPSDM.mWGS84
LongitudeDGPSDM.mWGS84
HeadingGyrodeg 
SOGDGPSknotsSpeed over ground
COGDGPSdegCourse over ground
DepthEcho soundermeters200 kHz
Missing or incorrect values are displayed as -999
Navigation data collected by the RV Zeeleeuw from 2009-02-27 08:38:06 to 2009-02-27 17:10:25
                                                                                    Next 1000 lines
Time Latitude Longitude Heading SOG COG Depth
2009-02-27 08:38:16 51°13.664 2°55.957 112.6 0.6 297 -999
2009-02-27 08:38:20 51°13.664 2°55.956 112.5 0.7 298 -999
2009-02-27 08:38:25 51°13.665 2°55.954 112.5 0.9 296 -999
2009-02-27 08:38:31 51°13.666 2°55.951 112.5 1 297 -999
2009-02-27 08:38:36 51°13.667 2°55.949 112.5 1.1 295 -999
2009-02-27 08:38:40 51°13.667 2°55.947 112.5 1.2 295 -999
2009-02-27 08:38:45 51°13.668 2°55.944 112.7 1.4 294 -999
2009-02-27 08:38:50 51°13.669 2°55.941 113 1.5 296 -999
2009-02-27 08:38:56 51°13.67 2°55.937 113.3 1.7 296 -999
2009-02-27 08:39:00 51°13.671 2°55.934 113.7 1.8 296 -999
2009-02-27 08:39:05 51°13.672 2°55.93 114 2 297 -999
2009-02-27 08:39:11 51°13.674 2°55.925 114.5 2.2 297 -999
2009-02-27 08:39:16 51°13.675 2°55.92 114.8 2.5 298 -999
2009-02-27 08:39:20 51°13.677 2°55.916 115 2.7 298 -999
2009-02-27 08:39:25 51°13.679 2°55.911 115.1 2.8 299 -999
2009-02-27 08:39:31 51°13.681 2°55.904 115.1 2.9 299 -999
2009-02-27 08:39:36 51°13.683 2°55.898 114.8 3.1 299 -999
2009-02-27 08:39:40 51°13.685 2°55.893 114.5 3.3 300 -999
2009-02-27 08:39:46 51°13.687 2°55.885 114 3.3 299 -999
2009-02-27 08:39:51 51°13.69 2°55.879 113.5 3.4 299 -999
2009-02-27 08:39:56 51°13.692 2°55.872 112.2 3.4 298 -999
2009-02-27 08:40:00 51°13.694 2°55.867 110.6 3.3 295 -999
2009-02-27 08:40:05 51°13.695 2°55.86 108.2 3.4 292 -999
2009-02-27 08:40:11 51°13.697 2°55.852 105.4 3.4 289 -999
2009-02-27 08:40:16 51°13.698 2°55.844 102.4 3.4 286 -999
2009-02-27 08:40:20 51°13.699 2°55.839 99.5 3.3 283 -999
2009-02-27 08:40:26 51°13.7 2°55.83 96.6 3.3 281 -999
2009-02-27 08:40:31 51°13.7 2°55.824 94.2 3.1 277 -999
2009-02-27 08:40:36 51°13.701 2°55.817 92 3.1 276 -999
2009-02-27 08:40:40 51°13.701 2°55.811 90.1 3 274 -999
2009-02-27 08:40:45 51°13.701 2°55.805 88.6 3 272 -999
2009-02-27 08:40:51 51°13.701 2°55.797 86.5 2.9 271 -999
2009-02-27 08:40:56 51°13.701 2°55.791 85 2.8 270 -999
2009-02-27 08:41:00 51°13.701 2°55.786 83.7 2.8 268 -999
2009-02-27 08:41:05 51°13.701 2°55.78 82.4 2.7 268 -999
2009-02-27 08:41:11 51°13.701 2°55.773 81 2.6 266 -999
2009-02-27 08:41:16 51°13.701 2°55.768 79.8 2.4 266 -999
2009-02-27 08:41:20 51°13.701 2°55.764 78.7 2.3 265 -999
2009-02-27 08:41:25 51°13.7 2°55.759 77.7 2.1 265 4.7
2009-02-27 08:41:31 51°13.7 2°55.755 76.4 1.6 265 -999
2009-02-27 08:41:35 51°13.7 2°55.754 73.7 1.1 275 -999
2009-02-27 08:41:40 51°13.7 2°55.753 70.2 0.5 294 -999
2009-02-27 08:41:46 51°13.701 2°55.753 66.2 0.5 356 -999
2009-02-27 08:41:50 51°13.702 2°55.753 61.6 0.7 24 10
2009-02-27 08:41:55 51°13.703 2°55.754 55.4 1.1 27 9.9
2009-02-27 08:42:00 51°13.705 2°55.756 49.1 1.4 30 -999
2009-02-27 08:42:05 51°13.706 2°55.757 41.1 1.4 25 4.8
2009-02-27 08:42:10 51°13.708 2°55.758 34.7 1.3 20 5
2009-02-27 08:42:15 51°13.709 2°55.759 31.1 1.1 18 4.9
2009-02-27 08:42:20 51°13.71 2°55.76 28.4 0.7 12 9.6
2009-02-27 08:42:25 51°13.711 2°55.759 24.9 0.3 346 9.6
2009-02-27 08:42:30 51°13.71 2°55.759 21.4 0.3 242 9.6
2009-02-27 08:42:35 51°13.71 2°55.758 18.2 0.6 211 9.6
2009-02-27 08:42:40 51°13.709 2°55.757 15.1 0.7 207 9.6
2009-02-27 08:42:45 51°13.708 2°55.757 12.6 0.6 210 9.6
2009-02-27 08:42:50 51°13.707 2°55.756 10.6 0.6 212 9.6
2009-02-27 08:42:55 51°13.707 2°55.755 8.8 0.4 219 9.7
2009-02-27 08:43:00 51°13.707 2°55.755 7.3 0.3 242 9.6
2009-02-27 08:43:05 51°13.707 2°55.754 5.2 0.2 290 9.7
2009-02-27 08:43:10 51°13.707 2°55.754 2.6 0.4 319 9.6
2009-02-27 08:43:16 51°13.708 2°55.754 359.5 0.6 334 9.7
2009-02-27 08:43:20 51°13.709 2°55.753 355.7 0.9 332 9.6
2009-02-27 08:43:25 51°13.71 2°55.752 351.6 1.1 333 9.7
2009-02-27 08:43:30 51°13.712 2°55.751 346.9 1.3 332 9.6
2009-02-27 08:43:36 51°13.714 2°55.749 341.9 1.5 329 9.6
2009-02-27 08:43:40 51°13.716 2°55.747 337.1 1.8 328 9.6
2009-02-27 08:43:45 51°13.718 2°55.744 333.1 2.6 326 9.5
2009-02-27 08:43:50 51°13.722 2°55.74 329.9 3.5 327 9.4
2009-02-27 08:43:55 51°13.727 2°55.735 328.1 4.2 326 9.4
2009-02-27 08:44:00 51°13.732 2°55.729 327.2 4.9 326 9.4
2009-02-27 08:44:05 51°13.738 2°55.723 327.3 5.3 328 9.3
2009-02-27 08:44:10 51°13.745 2°55.716 328.3 5.8 328 9.1
2009-02-27 08:44:15 51°13.752 2°55.709 328.9 6.2 327 9
2009-02-27 08:44:20 51°13.76 2°55.701 329 6.5 328 8.7
2009-02-27 08:44:25 51°13.767 2°55.693 329.1 6.8 327 8.4
2009-02-27 08:44:30 51°13.775 2°55.685 329.3 7 329 8.3
2009-02-27 08:44:35 51°13.784 2°55.677 329.8 7.3 329 8.3
2009-02-27 08:44:40 51°13.793 2°55.668 330.6 7.4 330 8.3
2009-02-27 08:44:45 51°13.802 2°55.661 331.5 7.6 332 8.3
2009-02-27 08:44:50 51°13.811 2°55.652 332.4 7.7 331 8.3
2009-02-27 08:44:55 51°13.82 2°55.645 333 7.7 334 8.3
2009-02-27 08:45:00 51°13.83 2°55.637 334 7.8 334 8.3
2009-02-27 08:45:05 51°13.84 2°55.63 334.6 7.8 335 8.2
2009-02-27 08:45:10 51°13.85 2°55.623 334.9 7.8 334 8.2
2009-02-27 08:45:16 51°13.862 2°55.614 335 7.8 334 8.2
2009-02-27 08:45:20 51°13.87 2°55.608 335 7.9 335 8.2
2009-02-27 08:45:25 51°13.88 2°55.6 335.2 7.9 334 8.2
2009-02-27 08:45:30 51°13.89 2°55.593 335.4 8 335 8.3
2009-02-27 08:45:36 51°13.902 2°55.584 336 8 335 8.3
2009-02-27 08:45:40 51°13.91 2°55.578 336.2 8 335 8.3
2009-02-27 08:45:45 51°13.92 2°55.571 336.2 8 335 8.3
2009-02-27 08:45:50 51°13.93 2°55.563 335.9 8 335 8.3
2009-02-27 08:45:56 51°13.942 2°55.554 335.7 8.1 336 8.3
2009-02-27 08:46:00 51°13.95 2°55.548 336.9 8.1 336 8.4
2009-02-27 08:46:05 51°13.96 2°55.541 337.1 8.1 336 8.4
2009-02-27 08:46:11 51°13.973 2°55.532 336.5 8.1 335 -999
2009-02-27 08:46:15 51°13.981 2°55.526 336.5 8.1 336 8.3
2009-02-27 08:46:20 51°13.991 2°55.518 337 8.1 335 8.3
2009-02-27 08:46:25 51°14.001 2°55.51 336.3 8.2 334 8.3
2009-02-27 08:46:30 51°14.011 2°55.503 335.8 8.2 335 8.3
2009-02-27 08:46:35 51°14.022 2°55.495 336.3 8.3 335 8.2
2009-02-27 08:46:40 51°14.032 2°55.488 336.6 8.3 335 8.3
2009-02-27 08:46:45 51°14.043 2°55.48 336.5 8.4 335 8.2
2009-02-27 08:46:50 51°14.054 2°55.472 336.6 8.5 336 8.2
2009-02-27 08:46:55 51°14.064 2°55.464 336.9 8.5 335 8.2
2009-02-27 08:47:00 51°14.075 2°55.457 337.1 8.5 335 8.3
2009-02-27 08:47:05 51°14.086 2°55.449 336.7 8.6 334 8.3
2009-02-27 08:47:10 51°14.097 2°55.44 336 8.6 335 8.3
2009-02-27 08:47:16 51°14.109 2°55.43 336 8.7 334 8.3
2009-02-27 08:47:20 51°14.118 2°55.424 336.1 8.7 334 8.2
2009-02-27 08:47:25 51°14.129 2°55.415 335.6 8.8 333 8.3
2009-02-27 08:47:31 51°14.143 2°55.405 335 8.8 334 8.2
2009-02-27 08:47:36 51°14.153 2°55.396 335.4 8.8 333 8.2
2009-02-27 08:47:40 51°14.162 2°55.389 335.4 8.8 332 8.3
2009-02-27 08:47:45 51°14.173 2°55.379 334.1 8.9 330 8.3
2009-02-27 08:47:50 51°14.183 2°55.369 332.1 8.9 329 8.3
2009-02-27 08:47:56 51°14.196 2°55.356 330.5 8.9 328 8.3
2009-02-27 08:48:00 51°14.204 2°55.347 329.8 8.9 327 8.3
2009-02-27 08:48:05 51°14.214 2°55.336 328.2 9 324 8.3
2009-02-27 08:48:10 51°14.224 2°55.323 326 9 323 8.3
2009-02-27 08:48:16 51°14.236 2°55.309 324.3 9.1 322 8.3
2009-02-27 08:48:20 51°14.243 2°55.298 323.5 9.1 321 -999
2009-02-27 08:48:25 51°14.253 2°55.285 322.4 9.1 320 8.2
2009-02-27 08:48:30 51°14.262 2°55.272 320.9 9.2 319 8.5
2009-02-27 08:48:36 51°14.274 2°55.256 320.2 9.2 319 -999
2009-02-27 08:48:40 51°14.282 2°55.245 319.6 9.2 318 8.4
2009-02-27 08:48:45 51°14.291 2°55.231 318.9 9.3 316 8.3
2009-02-27 08:48:50 51°14.3 2°55.217 318 9.3 315 8.4
2009-02-27 08:48:55 51°14.309 2°55.202 316.5 9.4 314 8.4
2009-02-27 08:49:00 51°14.318 2°55.187 315.2 9.5 313 8.4
2009-02-27 08:49:05 51°14.327 2°55.171 313.8 9.5 312 8.4
2009-02-27 08:49:10 51°14.336 2°55.155 312.6 9.6 312 8.5
2009-02-27 08:49:16 51°14.346 2°55.136 312.2 9.7 310 8.5
2009-02-27 08:49:20 51°14.353 2°55.122 310.9 9.8 309 8.3
2009-02-27 08:49:26 51°14.364 2°55.102 309.7 9.9 309 -999
2009-02-27 08:49:30 51°14.371 2°55.088 309.5 10 309 8.4
2009-02-27 08:49:36 51°14.381 2°55.068 309.5 10.1 309 8.4
2009-02-27 08:49:40 51°14.388 2°55.053 309.5 10.2 307 8.9
2009-02-27 08:49:45 51°14.396 2°55.035 308.4 10.3 307 8.5
2009-02-27 08:49:50 51°14.405 2°55.016 307.6 10.4 304 9
2009-02-27 08:49:56 51°14.415 2°54.993 306.4 10.5 304 8.8
2009-02-27 08:50:00 51°14.421 2°54.978 305.5 10.5 306 8.5
2009-02-27 08:50:05 51°14.43 2°54.96 306.4 10.6 309 8.8
2009-02-27 08:50:10 51°14.44 2°54.943 309.5 10.7 313 8.8
2009-02-27 08:50:16 51°14.453 2°54.923 313.6 10.7 317 9
2009-02-27 08:50:20 51°14.462 2°54.911 317.9 10.8 321 9
2009-02-27 08:50:25 51°14.474 2°54.896 322.3 10.8 324 9
2009-02-27 08:50:30 51°14.487 2°54.883 326.7 11 325 8.9
2009-02-27 08:50:35 51°14.499 2°54.868 328.9 11.1 324 8.8
2009-02-27 08:50:40 51°14.512 2°54.854 329.6 11.2 325 8.9
2009-02-27 08:50:45 51°14.525 2°54.84 330.4 11.4 327 8.7
2009-02-27 08:50:50 51°14.539 2°54.828 331.8 11.4 331 8.5
2009-02-27 08:50:55 51°14.553 2°54.816 334.8 11.4 331 8.5
2009-02-27 08:51:00 51°14.567 2°54.804 337.1 11.4 333 8.6
2009-02-27 08:51:05 51°14.581 2°54.792 338.3 11.6 330 8.3
2009-02-27 08:51:10 51°14.595 2°54.779 337 11.6 331 8.2
2009-02-27 08:51:15 51°14.609 2°54.767 336.6 11.7 331 8.1
2009-02-27 08:51:20 51°14.623 2°54.754 336.9 11.7 331 8.2
2009-02-27 08:51:25 51°14.637 2°54.741 336.8 11.8 329 8.2
2009-02-27 08:51:30 51°14.651 2°54.727 335.8 11.8 329 8.1
2009-02-27 08:51:35 51°14.665 2°54.714 335.2 11.8 329 8
2009-02-27 08:51:40 51°14.679 2°54.7 335 11.8 329 8.1
2009-02-27 08:51:45 51°14.693 2°54.687 334.7 11.9 328 8.2
2009-02-27 08:51:50 51°14.707 2°54.672 334.1 11.8 329 8.1
2009-02-27 08:51:56 51°14.724 2°54.656 334.2 11.9 328 8.2
2009-02-27 08:52:00 51°14.735 2°54.645 334.2 11.8 328 8.1
2009-02-27 08:52:05 51°14.749 2°54.632 334 11.8 329 8.2
2009-02-27 08:52:10 51°14.763 2°54.618 334.4 11.8 329 8.2
2009-02-27 08:52:16 51°14.78 2°54.602 334.6 11.8 328 8.1
2009-02-27 08:52:20 51°14.791 2°54.591 334.2 11.8 329 8.1
2009-02-27 08:52:25 51°14.805 2°54.577 334.2 11.8 329 8
2009-02-27 08:52:30 51°14.819 2°54.564 334.4 11.8 330 7.9
2009-02-27 08:52:36 51°14.836 2°54.548 334.4 11.8 329 8
2009-02-27 08:52:40 51°14.847 2°54.538 334.2 11.8 330 8.1
2009-02-27 08:52:45 51°14.862 2°54.525 334.6 11.8 330 8.2
2009-02-27 08:52:50 51°14.876 2°54.512 334.9 11.8 330 8.1
2009-02-27 08:52:56 51°14.893 2°54.496 334.7 11.8 330 8.2
2009-02-27 08:53:00 51°14.904 2°54.486 334.9 11.7 331 8.3
2009-02-27 08:53:05 51°14.919 2°54.474 335.1 11.8 331 8.4
2009-02-27 08:53:10 51°14.933 2°54.461 335.4 11.8 331 8.8
2009-02-27 08:53:15 51°14.947 2°54.449 335.7 11.8 331 8.7
2009-02-27 08:53:20 51°14.962 2°54.436 335.9 11.8 330 9
2009-02-27 08:53:25 51°14.976 2°54.423 335.2 11.9 331 9.7
2009-02-27 08:53:30 51°14.99 2°54.41 335.1 12 331 9.8
2009-02-27 08:53:35 51°15.005 2°54.398 335.1 11.9 332 9.8
2009-02-27 08:53:40 51°15.02 2°54.386 335.8 11.9 332 9.7
2009-02-27 08:53:45 51°15.034 2°54.373 336.2 11.9 331 9.7
2009-02-27 08:53:50 51°15.049 2°54.36 335.9 11.9 330 9.7
2009-02-27 08:53:56 51°15.066 2°54.344 335 11.8 330 9.6
2009-02-27 08:54:00 51°15.077 2°54.334 334.5 11.9 330 9.7
2009-02-27 08:54:05 51°15.092 2°54.32 334.3 11.8 330 9.7
2009-02-27 08:54:10 51°15.106 2°54.307 334 11.8 330 9.7
2009-02-27 08:54:16 51°15.123 2°54.291 333.7 11.8 330 9.7
2009-02-27 08:54:20 51°15.134 2°54.281 334.3 11.8 330 9.8
2009-02-27 08:54:25 51°15.148 2°54.267 334 11.8 330 9.7
2009-02-27 08:54:30 51°15.162 2°54.255 334.2 11.8 331 9.9
2009-02-27 08:54:36 51°15.18 2°54.24 334.9 11.8 332 9.8
2009-02-27 08:54:40 51°15.191 2°54.23 335.8 11.9 331 9.8
2009-02-27 08:54:45 51°15.206 2°54.218 336.1 11.8 333 9.8
2009-02-27 08:54:50 51°15.22 2°54.205 336.9 11.8 331 9.8
2009-02-27 08:54:56 51°15.237 2°54.19 336.4 11.8 331 9.9
2009-02-27 08:55:00 51°15.249 2°54.18 335.4 11.8 332 9.9
2009-02-27 08:55:05 51°15.263 2°54.167 335.8 11.9 330 10
2009-02-27 08:55:10 51°15.277 2°54.154 335 11.8 330 9.9
2009-02-27 08:55:15 51°15.291 2°54.141 334.6 11.8 330 9.8
2009-02-27 08:55:20 51°15.305 2°54.127 334.6 11.8 329 9.9
2009-02-27 08:55:25 51°15.319 2°54.113 334.4 11.9 329 9.8
2009-02-27 08:55:30 51°15.333 2°54.099 334.3 11.9 328 10
2009-02-27 08:55:35 51°15.347 2°54.086 334.2 11.9 329 9.9
2009-02-27 08:55:40 51°15.361 2°54.072 334.1 11.9 328 9.9
2009-02-27 08:55:45 51°15.375 2°54.058 333.9 11.8 329 9.7
2009-02-27 08:55:50 51°15.389 2°54.045 334.3 11.8 329 9.9
2009-02-27 08:55:55 51°15.403 2°54.031 334.7 11.8 329 9.9
2009-02-27 08:56:00 51°15.417 2°54.018 334.7 11.8 329 9.7
2009-02-27 08:56:05 51°15.431 2°54.004 334.4 11.8 328 9.9
2009-02-27 08:56:10 51°15.445 2°53.99 334.2 11.7 328 9.7
2009-02-27 08:56:16 51°15.461 2°53.974 334 11.7 329 9.6
2009-02-27 08:56:20 51°15.472 2°53.963 334.2 11.7 328 9.5
2009-02-27 08:56:25 51°15.486 2°53.949 334.4 11.8 328 9.3
2009-02-27 08:56:30 51°15.5 2°53.936 334.3 11.8 328 9.1
2009-02-27 08:56:36 51°15.517 2°53.92 334.3 11.7 329 9
2009-02-27 08:56:40 51°15.528 2°53.909 334.5 11.7 329 9
2009-02-27 08:56:45 51°15.542 2°53.895 335 11.8 328 9.1
2009-02-27 08:56:50 51°15.555 2°53.882 334.7 11.6 328 9.3
2009-02-27 08:56:56 51°15.572 2°53.865 334 11.8 328 9.3
2009-02-27 08:57:00 51°15.583 2°53.854 334 11.7 328 9.1
2009-02-27 08:57:05 51°15.597 2°53.841 334.2 11.7 328 9.2
2009-02-27 08:57:10 51°15.611 2°53.827 334.6 11.8 329 9.2
2009-02-27 08:57:15 51°15.625 2°53.814 335.2 11.8 330 9.3
2009-02-27 08:57:20 51°15.639 2°53.801 336.1 11.8 330 9.4
2009-02-27 08:57:25 51°15.654 2°53.789 336.5 11.8 331 9.3
2009-02-27 08:57:30 51°15.668 2°53.776 336.9 11.8 331 9.3
2009-02-27 08:57:35 51°15.682 2°53.763 337.6 11.8 330 9.7
2009-02-27 08:57:40 51°15.696 2°53.75 337.2 11.8 329 9.4
2009-02-27 08:57:45 51°15.71 2°53.737 336.2 11.8 330 9.6
2009-02-27 08:57:50 51°15.724 2°53.723 336.1 11.9 327 9.7
2009-02-27 08:57:55 51°15.738 2°53.709 335.2 11.8 329 9.6
2009-02-27 08:58:00 51°15.752 2°53.696 335.3 11.8 329 9.6
2009-02-27 08:58:05 51°15.766 2°53.683 335.6 11.8 330 9.7
2009-02-27 08:58:10 51°15.781 2°53.67 336.2 11.8 330 9.6
2009-02-27 08:58:16 51°15.798 2°53.654 336.5 11.8 331 9.8
2009-02-27 08:58:20 51°15.809 2°53.644 337.1 11.9 331 9.7
2009-02-27 08:58:25 51°15.824 2°53.631 337.6 11.9 330 9.8
2009-02-27 08:58:30 51°15.838 2°53.619 337.2 11.9 330 9.7
2009-02-27 08:58:36 51°15.855 2°53.603 336.6 11.8 330 9.8
2009-02-27 08:58:40 51°15.867 2°53.592 336.1 11.8 329 9.6
2009-02-27 08:58:45 51°15.881 2°53.579 335.6 11.8 329 9.7
2009-02-27 08:58:50 51°15.895 2°53.565 335.2 11.9 328 9.8
2009-02-27 08:58:56 51°15.912 2°53.549 334.7 11.8 329 9.9
2009-02-27 08:59:00 51°15.922 2°53.537 334.7 11.8 327 9.9
2009-02-27 08:59:05 51°15.936 2°53.524 334.4 11.9 329 10.1
2009-02-27 08:59:10 51°15.951 2°53.51 334.2 11.9 328 9.9
2009-02-27 08:59:16 51°15.968 2°53.494 334.4 11.8 330 9.9
2009-02-27 08:59:20 51°15.979 2°53.483 335.5 11.8 329 10
2009-02-27 08:59:25 51°15.993 2°53.47 335.8 11.8 331 10
2009-02-27 08:59:30 51°16.007 2°53.457 336.2 11.8 330 10
2009-02-27 08:59:35 51°16.022 2°53.444 336.8 11.8 331 10.1
2009-02-27 08:59:40 51°16.036 2°53.432 337 11.8 330 10
2009-02-27 08:59:45 51°16.05 2°53.419 336.9 11.8 331 10.1
2009-02-27 08:59:50 51°16.065 2°53.406 337.1 11.8 331 10
2009-02-27 08:59:55 51°16.079 2°53.393 337.5 11.8 331 10.2
2009-02-27 09:00:00 51°16.093 2°53.381 337.6 11.8 331 10.2
2009-02-27 09:00:05 51°16.108 2°53.368 337.7 11.8 331 10.2
2009-02-27 09:00:10 51°16.122 2°53.356 337.9 11.7 332 10.3
2009-02-27 09:00:15 51°16.136 2°53.343 338.3 11.7 331 10.2
2009-02-27 09:00:20 51°16.151 2°53.331 338 11.8 333 10.3
2009-02-27 09:00:25 51°16.165 2°53.319 338.7 11.9 331 10.4
2009-02-27 09:00:30 51°16.18 2°53.307 338.4 11.8 332 10.3
2009-02-27 09:00:36 51°16.197 2°53.292 338 11.7 332 10.2
2009-02-27 09:00:40 51°16.209 2°53.283 338.6 11.7 333 10.3
2009-02-27 09:00:45 51°16.223 2°53.27 338.9 11.8 332 10.3
2009-02-27 09:00:50 51°16.238 2°53.258 338.6 11.8 332 10.3
2009-02-27 09:00:55 51°16.252 2°53.247 338.6 11.7 333 10.3
2009-02-27 09:01:00 51°16.267 2°53.235 339.2 11.7 333 10.3
2009-02-27 09:01:05 51°16.281 2°53.223 339.4 11.8 333 10.5
2009-02-27 09:01:10 51°16.296 2°53.212 339.3 11.7 334 10.5
2009-02-27 09:01:16 51°16.313 2°53.198 339.9 11.7 334 10.5
2009-02-27 09:01:20 51°16.325 2°53.19 340.1 11.6 335 10.4
2009-02-27 09:01:25 51°16.339 2°53.179 340.5 11.6 335 10.2
2009-02-27 09:01:30 51°16.354 2°53.168 340.9 11.6 337 10.4
2009-02-27 09:01:35 51°16.369 2°53.158 341.9 11.7 335 10.3
2009-02-27 09:01:40 51°16.384 2°53.148 341.9 11.6 338 10.4
2009-02-27 09:01:45 51°16.398 2°53.138 342.5 11.6 336 10.5
2009-02-27 09:01:50 51°16.413 2°53.128 342.5 11.7 338 10.5
2009-02-27 09:01:55 51°16.429 2°53.119 342.7 11.7 337 10.5
2009-02-27 09:02:00 51°16.443 2°53.108 342.9 11.7 335 10.3
2009-02-27 09:02:05 51°16.458 2°53.098 341.9 11.7 338 10.5
2009-02-27 09:02:10 51°16.473 2°53.088 341.9 11.7 337 10.3
2009-02-27 09:02:15 51°16.488 2°53.078 342.2 11.7 339 10.4
2009-02-27 09:02:20 51°16.503 2°53.068 342.7 11.7 337 10.5
2009-02-27 09:02:25 51°16.518 2°53.059 342.9 11.7 339 10.5
2009-02-27 09:02:30 51°16.533 2°53.05 343.1 11.6 338 10.3
2009-02-27 09:02:36 51°16.551 2°53.038 343.3 11.6 338 10.3
2009-02-27 09:02:40 51°16.563 2°53.03 343 11.7 338 10.3
2009-02-27 09:02:45 51°16.578 2°53.021 342.7 11.7 339 10.3
2009-02-27 09:02:50 51°16.593 2°53.011 342.8 11.6 337 10.4
2009-02-27 09:02:55 51°16.608 2°53.001 342.2 11.6 338 10.2
2009-02-27 09:03:00 51°16.623 2°52.992 341.9 11.6 337 10.1
2009-02-27 09:03:05 51°16.638 2°52.981 342 11.6 337 10.2
2009-02-27 09:03:10 51°16.653 2°52.972 341.9 11.6 337 10.1
2009-02-27 09:03:16 51°16.67 2°52.96 341.9 11.5 337 10
2009-02-27 09:03:20 51°16.682 2°52.952 341.7 11.5 338 10
2009-02-27 09:03:25 51°16.697 2°52.942 341.9 11.6 337 9.9
2009-02-27 09:03:30 51°16.712 2°52.932 341.7 11.5 336 9.8
2009-02-27 09:03:36 51°16.729 2°52.919 341.2 11.4 337 9.7
2009-02-27 09:03:40 51°16.741 2°52.911 341.2 11.5 336 9.6
2009-02-27 09:03:45 51°16.755 2°52.901 340.9 11.5 337 9.3
2009-02-27 09:03:50 51°16.77 2°52.891 340.9 11.4 336 9
2009-02-27 09:03:56 51°16.787 2°52.879 341.2 11.3 338 8.8
2009-02-27 09:04:00 51°16.799 2°52.871 341.2 11.2 337 8.4
2009-02-27 09:04:05 51°16.813 2°52.861 341.2 11.1 336 8.2
2009-02-27 09:04:10 51°16.827 2°52.851 340.8 11.1 336 8
2009-02-27 09:04:15 51°16.841 2°52.841 340.7 11.1 336 8.1
2009-02-27 09:04:20 51°16.855 2°52.831 340.5 11.1 335 7.9
2009-02-27 09:04:25 51°16.869 2°52.821 340 11 336 7.9
2009-02-27 09:04:30 51°16.883 2°52.811 340.5 11 335 7.8
2009-02-27 09:04:35 51°16.897 2°52.8 340.2 11 335 7.7
2009-02-27 09:04:40 51°16.91 2°52.789 339.6 10.9 334 7.7
2009-02-27 09:04:45 51°16.924 2°52.778 339.3 11 333 7.7
2009-02-27 09:04:50 51°16.938 2°52.768 338.7 11.1 334 8
2009-02-27 09:04:55 51°16.951 2°52.756 338.8 11.1 333 8
2009-02-27 09:05:00 51°16.965 2°52.745 338.6 11 333 8.2
2009-02-27 09:05:05 51°16.979 2°52.734 338.2 11 332 8.4
2009-02-27 09:05:10 51°16.992 2°52.723 337.7 11.1 333 8.4
2009-02-27 09:05:15 51°17.006 2°52.711 337.9 11 332 8.5
2009-02-27 09:05:20 51°17.019 2°52.701 337.9 10.9 333 8.6
2009-02-27 09:05:25 51°17.033 2°52.689 338 10.9 333 8.7
2009-02-27 09:05:30 51°17.046 2°52.679 338.3 11 333 8.9
2009-02-27 09:05:36 51°17.063 2°52.665 338.6 11 334 8.7
2009-02-27 09:05:40 51°17.073 2°52.656 338.8 11.1 333 8.6
2009-02-27 09:05:45 51°17.087 2°52.646 338.7 11 334 8.4
2009-02-27 09:05:50 51°17.1 2°52.635 338.5 10.9 333 8.2
2009-02-27 09:05:56 51°17.117 2°52.623 338.8 10.8 336 8.2
2009-02-27 09:06:00 51°17.128 2°52.614 339.7 10.8 334 8.3
2009-02-27 09:06:05 51°17.141 2°52.605 339.8 10.9 336 8.4
2009-02-27 09:06:10 51°17.155 2°52.594 340.4 10.9 335 8.2
2009-02-27 09:06:16 51°17.171 2°52.582 341 10.8 335 8.2
2009-02-27 09:06:20 51°17.182 2°52.574 340.9 10.9 334 8.4
2009-02-27 09:06:25 51°17.196 2°52.564 340.3 11 335 8.6
2009-02-27 09:06:30 51°17.21 2°52.553 340.5 10.9 334 8.4
2009-02-27 09:06:35 51°17.223 2°52.543 340.2 10.9 335 8.5
2009-02-27 09:06:40 51°17.237 2°52.532 340 11 333 8.7
2009-02-27 09:06:45 51°17.25 2°52.521 339.6 11 335 8.7
2009-02-27 09:06:50 51°17.264 2°52.511 339.6 11 335 8.7
2009-02-27 09:06:55 51°17.278 2°52.501 340.5 10.9 336 8.7
2009-02-27 09:07:00 51°17.292 2°52.491 341.2 10.9 335 8.9
2009-02-27 09:07:05 51°17.306 2°52.482 341.2 10.9 337 8.9
2009-02-27 09:07:10 51°17.32 2°52.472 341.7 11.1 336 8.9
2009-02-27 09:07:15 51°17.334 2°52.461 341.8 11 335 8.9
2009-02-27 09:07:20 51°17.348 2°52.451 341.3 11 336 9
2009-02-27 09:07:25 51°17.362 2°52.441 341.1 11.1 334 9.2
2009-02-27 09:07:30 51°17.375 2°52.43 340.5 11 334 9
2009-02-27 09:07:36 51°17.392 2°52.417 339.8 11.1 334 9
2009-02-27 09:07:40 51°17.403 2°52.408 339.4 11.1 332 9
2009-02-27 09:07:45 51°17.417 2°52.396 338.5 11.2 333 9.1
2009-02-27 09:07:50 51°17.43 2°52.385 338.3 11 331 9.1
2009-02-27 09:07:56 51°17.446 2°52.37 337.9 11 331 9.1
2009-02-27 09:08:00 51°17.457 2°52.361 337.2 11.1 331 9.1
2009-02-27 09:08:05 51°17.471 2°52.349 337 11.1 330 9.3
2009-02-27 09:08:10 51°17.484 2°52.336 336.7 11.2 331 9.1
2009-02-27 09:08:16 51°17.5 2°52.321 336.6 11.2 330 9
2009-02-27 09:08:20 51°17.511 2°52.311 336.3 11.2 329 9.2
2009-02-27 09:08:25 51°17.524 2°52.299 335.3 11.2 329 9.1
2009-02-27 09:08:30 51°17.537 2°52.286 335.4 11.1 330 9.1
2009-02-27 09:08:36 51°17.553 2°52.269 335.2 11.2 327 9.1
2009-02-27 09:08:40 51°17.564 2°52.26 334.3 11.2 329 9.1
2009-02-27 09:08:45 51°17.577 2°52.246 334.2 11.2 328 9.3
2009-02-27 09:08:50 51°17.59 2°52.233 334.2 11.1 328 9.1
2009-02-27 09:08:55 51°17.603 2°52.22 334.1 11.2 327 9.2
2009-02-27 09:09:00 51°17.616 2°52.206 334.1 11.2 327 9.1
2009-02-27 09:09:05 51°17.629 2°52.193 333.6 11.1 328 9.1
2009-02-27 09:09:10 51°17.642 2°52.18 334 11.1 327 9.1
2009-02-27 09:09:15 51°17.654 2°52.166 333.9 11.2 327 9.1
2009-02-27 09:09:20 51°17.668 2°52.153 333.8 11.1 327 9.2
2009-02-27 09:09:25 51°17.68 2°52.139 333.6 11.1 328 9.2
2009-02-27 09:09:30 51°17.694 2°52.126 333.9 11.1 327 9.1
2009-02-27 09:09:35 51°17.706 2°52.113 333.9 11.1 327 9.3
2009-02-27 09:09:40 51°17.719 2°52.098 333.2 11.2 325 9.2
2009-02-27 09:09:45 51°17.732 2°52.085 332.2 11.1 326 9.1
2009-02-27 09:09:50 51°17.745 2°52.07 331.8 11.1 324 9.1
2009-02-27 09:09:56 51°17.76 2°52.054 331.1 11 326 9.1
2009-02-27 09:10:00 51°17.77 2°52.042 331.4 11.1 324 9.1
2009-02-27 09:10:05 51°17.782 2°52.027 331.1 11.1 324 9.1
2009-02-27 09:10:10 51°17.795 2°52.013 330.5 11.2 324 9
2009-02-27 09:10:16 51°17.81 2°51.996 331.1 11.1 327 9.1
2009-02-27 09:10:20 51°17.82 2°51.985 332 11.1 326 9
2009-02-27 09:10:25 51°17.833 2°51.972 332.4 11.1 327 9.2
2009-02-27 09:10:30 51°17.846 2°51.959 332.5 11.1 327 9
2009-02-27 09:10:36 51°17.862 2°51.942 333.5 11.2 327 9
2009-02-27 09:10:40 51°17.872 2°51.931 333.2 11.1 326 9
2009-02-27 09:10:45 51°17.885 2°51.918 333.5 11.2 327 9.1
2009-02-27 09:10:50 51°17.898 2°51.904 333.9 11.2 326 9.1
2009-02-27 09:10:56 51°17.913 2°51.888 333.6 11.3 327 9.1
2009-02-27 09:11:00 51°17.924 2°51.877 334 11.3 327 9.2
2009-02-27 09:11:05 51°17.937 2°51.864 334 11.2 326 9
2009-02-27 09:11:10 51°17.95 2°51.85 334 11.2 328 9.1
2009-02-27 09:11:15 51°17.963 2°51.837 334.1 11.3 326 9.2
2009-02-27 09:11:20 51°17.976 2°51.823 334.1 11.2 327 9.2
2009-02-27 09:11:25 51°17.989 2°51.809 334 11.1 327 9.2
2009-02-27 09:11:30 51°18.001 2°51.795 333.8 11.2 326 9.5
2009-02-27 09:11:35 51°18.014 2°51.782 333.6 11.2 327 9.4
2009-02-27 09:11:40 51°18.027 2°51.768 333.8 11.2 326 9.4
2009-02-27 09:11:45 51°18.04 2°51.754 333.8 11.3 327 9.5
2009-02-27 09:11:50 51°18.053 2°51.739 333.6 11.3 326 9.6
2009-02-27 09:11:56 51°18.069 2°51.722 333 11.3 326 9.5
2009-02-27 09:12:00 51°18.079 2°51.712 333.2 11.3 326 9.5
2009-02-27 09:12:05 51°18.092 2°51.698 333.4 11.2 326 9.7
2009-02-27 09:12:10 51°18.105 2°51.684 333.5 11.3 327 9.9
2009-02-27 09:12:16 51°18.121 2°51.666 333.4 11.4 324 9.9
2009-02-27 09:12:20 51°18.131 2°51.655 332.5 11.3 325 9.9
2009-02-27 09:12:25 51°18.144 2°51.64 332 11.3 324 10
2009-02-27 09:12:30 51°18.156 2°51.626 331.5 11.3 324 10.1
2009-02-27 09:12:36 51°18.171 2°51.607 331.5 11.4 323 10.3
2009-02-27 09:12:40 51°18.182 2°51.595 331.1 11.5 323 10.3
2009-02-27 09:12:45 51°18.194 2°51.58 330.9 11.3 323 10.2
2009-02-27 09:12:50 51°18.207 2°51.565 330.7 11.3 323 10.5
2009-02-27 09:12:56 51°18.222 2°51.547 331.1 11.4 322 10.5
2009-02-27 09:13:00 51°18.232 2°51.534 331.3 11.3 322 10.5
2009-02-27 09:13:05 51°18.245 2°51.519 331.1 11.4 324 10.7
2009-02-27 09:13:10 51°18.258 2°51.504 332.2 11.4 324 10.8
2009-02-27 09:13:15 51°18.27 2°51.489 332.7 11.4 324 11
2009-02-27 09:13:20 51°18.283 2°51.474 332.5 11.4 322 11
2009-02-27 09:13:25 51°18.295 2°51.459 332.1 11.3 324 11.2
2009-02-27 09:13:30 51°18.308 2°51.444 332.1 11.4 325 11.2
2009-02-27 09:13:35 51°18.321 2°51.428 332.9 11.4 323 11.1
2009-02-27 09:13:40 51°18.334 2°51.414 332.9 11.4 324 11.3
2009-02-27 09:13:45 51°18.347 2°51.399 333.3 11.4 325 11.4
2009-02-27 09:13:50 51°18.359 2°51.384 334.4 11.4 323 11.5
2009-02-27 09:13:55 51°18.372 2°51.37 333.6 11.4 325 11.5
2009-02-27 09:14:00 51°18.385 2°51.355 334.6 11.4 324 11.6
2009-02-27 09:14:05 51°18.398 2°51.34 334.5 11.3 326 11.9
2009-02-27 09:14:10 51°18.411 2°51.326 334.1 11.5 323 11.8
2009-02-27 09:14:16 51°18.426 2°51.308 333.9 11.4 325 11.9
2009-02-27 09:14:20 51°18.437 2°51.296 334.1 11.4 323 12
2009-02-27 09:14:25 51°18.449 2°51.282 333.6 11.3 325 12.1
2009-02-27 09:14:30 51°18.462 2°51.267 334.5 11.5 323 12.3
2009-02-27 09:14:36 51°18.478 2°51.249 334.1 11.4 324 12.4
2009-02-27 09:14:40 51°18.488 2°51.237 333.6 11.5 325 12.5
2009-02-27 09:14:45 51°18.501 2°51.222 334.4 11.5 324 12.7
2009-02-27 09:14:50 51°18.514 2°51.207 334 11.4 325 12.5
2009-02-27 09:14:56 51°18.529 2°51.189 334 11.4 323 12.6
2009-02-27 09:15:00 51°18.539 2°51.178 334.1 10.9 326 12.8
2009-02-27 09:15:05 51°18.551 2°51.165 334.1 10.4 325 12.9
2009-02-27 09:15:10 51°18.562 2°51.154 334.2 9.6 333 12.7
2009-02-27 09:15:16 51°18.576 2°51.146 339 8.6 342 12.9
2009-02-27 09:15:20 51°18.584 2°51.144 346.7 7.6 351 12.8
2009-02-27 09:15:25 51°18.594 2°51.144 356.7 6.3 4 12.7
2009-02-27 09:15:30 51°18.601 2°51.146 7.6 5.5 11 13
2009-02-27 09:15:35 51°18.608 2°51.15 16.2 5 19 13.1
2009-02-27 09:15:40 51°18.614 2°51.155 24 4.8 27 13.1
2009-02-27 09:15:45 51°18.62 2°51.159 31.1 4.8 26 13.3
2009-02-27 09:15:50 51°18.626 2°51.164 34.2 4.9 22 13.3
2009-02-27 09:15:55 51°18.633 2°51.166 31.3 5.3 7 13.3
2009-02-27 09:16:00 51°18.64 2°51.168 24 5.6 8 13.3
2009-02-27 09:16:05 51°18.648 2°51.168 18.1 6.1 359 13.3
2009-02-27 09:16:10 51°18.657 2°51.166 13 6.5 355 13.3
2009-02-27 09:16:16 51°18.669 2°51.162 7.8 7.1 347 13.3
2009-02-27 09:16:20 51°18.677 2°51.158 2.3 7.6 341 13.3
2009-02-27 09:16:25 51°18.687 2°51.151 356.2 8 335 13.4
2009-02-27 09:16:30 51°18.697 2°51.142 349.8 8.5 329 13.3
2009-02-27 09:16:36 51°18.71 2°51.129 344.1 8.8 326 13.3
2009-02-27 09:16:40 51°18.718 2°51.119 339 9.2 324 13.3
2009-02-27 09:16:45 51°18.728 2°51.106 335.8 9.6 322 13.2
2009-02-27 09:16:50 51°18.739 2°51.094 334.2 9.8 325 13.4
2009-02-27 09:16:56 51°18.753 2°51.078 334.9 10.1 323 13.3
2009-02-27 09:17:00 51°18.762 2°51.067 335.1 10.2 324 13.5
2009-02-27 09:17:05 51°18.773 2°51.054 335.1 10.5 323 13.5
2009-02-27 09:17:10 51°18.785 2°51.038 334.5 10.7 320 13.6
2009-02-27 09:17:16 51°18.799 2°51.021 332.7 10.7 323 13.5
2009-02-27 09:17:20 51°18.808 2°51.009 332.5 10.9 321 13.6
2009-02-27 09:17:25 51°18.82 2°50.993 331.9 11.1 321 13.5
2009-02-27 09:17:30 51°18.832 2°50.977 331.4 11.3 320 13.7
2009-02-27 09:17:36 51°18.846 2°50.958 331 11.4 320 13.7
2009-02-27 09:17:40 51°18.857 2°50.945 330.7 11.6 320 13.8
2009-02-27 09:17:45 51°18.869 2°50.928 330.2 11.6 320 13.7
2009-02-27 09:17:50 51°18.882 2°50.912 330.4 11.7 321 13.7
2009-02-27 09:17:56 51°18.897 2°50.892 331 11.8 320 13.8
2009-02-27 09:18:00 51°18.907 2°50.878 330.3 11.8 320 13.8
2009-02-27 09:18:05 51°18.919 2°50.861 330.3 11.9 321 13.6
2009-02-27 09:18:10 51°18.932 2°50.845 330.4 11.9 320 13.8
2009-02-27 09:18:15 51°18.944 2°50.827 330.5 11.9 319 13.6
2009-02-27 09:18:20 51°18.957 2°50.811 330.2 11.8 322 14
2009-02-27 09:18:25 51°18.97 2°50.795 330.7 11.8 320 13.8
2009-02-27 09:18:30 51°18.982 2°50.778 330.3 11.8 321 13.6
2009-02-27 09:18:36 51°18.997 2°50.758 330.3 11.8 320 13.7
2009-02-27 09:18:40 51°19.008 2°50.744 329.8 11.8 320 13.6
2009-02-27 09:18:45 51°19.02 2°50.727 329.7 11.9 319 13.6
2009-02-27 09:18:50 51°19.033 2°50.71 329.5 11.9 319 13.6
2009-02-27 09:18:55 51°19.045 2°50.692 329.4 12 318 13.7
2009-02-27 09:19:00 51°19.058 2°50.676 328.9 11.9 320 13.5
2009-02-27 09:19:05 51°19.07 2°50.658 329.5 12 319 13.6
2009-02-27 09:19:10 51°19.083 2°50.641 329.4 11.9 319 13.5
2009-02-27 09:19:16 51°19.098 2°50.62 329 11.9 319 13.4
2009-02-27 09:19:20 51°19.108 2°50.606 328.6 12 318 13.4
2009-02-27 09:19:25 51°19.12 2°50.589 328.7 11.9 320 13.1
2009-02-27 09:19:30 51°19.133 2°50.571 328.5 11.9 320 13
2009-02-27 09:19:36 51°19.148 2°50.551 329 12 320 12.9
2009-02-27 09:19:40 51°19.159 2°50.537 329.6 11.9 320 12.4
2009-02-27 09:19:45 51°19.171 2°50.52 329.7 11.9 321 12.7
2009-02-27 09:19:50 51°19.184 2°50.504 330.6 12 320 12.3
2009-02-27 09:19:56 51°19.2 2°50.483 330.3 12 319 12
2009-02-27 09:20:00 51°19.21 2°50.47 329.3 12 320 12.1
2009-02-27 09:20:05 51°19.222 2°50.452 329.1 12 319 12.1
2009-02-27 09:20:10 51°19.235 2°50.436 328.6 11.9 322 11.9
2009-02-27 09:20:15 51°19.248 2°50.419 329.7 11.9 321 11.8
2009-02-27 09:20:20 51°19.261 2°50.403 330.3 11.9 321 11.8
2009-02-27 09:20:25 51°19.274 2°50.386 329.5 11.9 321 11.5
2009-02-27 09:20:30 51°19.287 2°50.37 329.5 11.8 322 11.1
2009-02-27 09:20:36 51°19.302 2°50.35 329.6 11.8 322 10.9
2009-02-27 09:20:40 51°19.312 2°50.337 329.6 11.9 320 10.8
2009-02-27 09:20:45 51°19.325 2°50.321 328.9 11.9 322 11
2009-02-27 09:20:50 51°19.338 2°50.304 329.3 11.9 321 10.8
2009-02-27 09:20:55 51°19.351 2°50.288 329.8 11.9 323 10.8
2009-02-27 09:21:00 51°19.364 2°50.272 330.3 12 322 11
2009-02-27 09:21:05 51°19.377 2°50.256 330.3 12 323 10.8
2009-02-27 09:21:10 51°19.391 2°50.239 330.9 12 321 10.7
2009-02-27 09:21:16 51°19.406 2°50.219 330.4 12 322 10.5
2009-02-27 09:21:20 51°19.417 2°50.206 329.8 11.9 322 10.6
2009-02-27 09:21:25 51°19.43 2°50.191 330.3 11.9 324 10.7
2009-02-27 09:21:30 51°19.443 2°50.175 331 11.9 323 10.9
2009-02-27 09:21:36 51°19.459 2°50.156 331 11.9 324 11.1
2009-02-27 09:21:40 51°19.47 2°50.144 331.1 11.9 324 10.9
2009-02-27 09:21:45 51°19.483 2°50.128 331.6 12 323 10.7
2009-02-27 09:21:50 51°19.497 2°50.112 331.1 11.9 322 10.7
2009-02-27 09:21:56 51°19.512 2°50.093 330.2 11.9 322 11
2009-02-27 09:22:00 51°19.523 2°50.08 329.7 12 323 10.9
2009-02-27 09:22:05 51°19.536 2°50.064 330.1 12 323 11.1
2009-02-27 09:22:10 51°19.55 2°50.048 330.9 12.1 323 11.5
2009-02-27 09:22:15 51°19.563 2°50.032 331.1 12.2 323 11.8
2009-02-27 09:22:20 51°19.576 2°50.016 331.3 12 323 12.2
2009-02-27 09:22:25 51°19.59 2°50 331.2 12.1 323 12.3
2009-02-27 09:22:30 51°19.603 2°49.984 331.1 12.1 323 12.8
2009-02-27 09:22:35 51°19.617 2°49.969 331 12 325 12.8
2009-02-27 09:22:40 51°19.63 2°49.954 331.8 12 325 12.9
2009-02-27 09:22:45 51°19.644 2°49.938 332.1 12 323 13.3
2009-02-27 09:22:50 51°19.657 2°49.923 331.7 12 325 13.4
2009-02-27 09:22:55 51°19.671 2°49.907 332.2 12 325 13.3
2009-02-27 09:23:00 51°19.685 2°49.892 333 12.1 326 13.7
2009-02-27 09:23:05 51°19.699 2°49.877 333.5 12 325 13.7
2009-02-27 09:23:10 51°19.712 2°49.862 333.5 12.1 326 13.5
2009-02-27 09:23:15 51°19.726 2°49.847 333.6 12 326 13.7
2009-02-27 09:23:20 51°19.74 2°49.832 334 12 326 13.9
2009-02-27 09:23:25 51°19.754 2°49.817 334.1 12.1 325 13.9
2009-02-27 09:23:30 51°19.768 2°49.802 334 12.1 326 14.1
2009-02-27 09:23:36 51°19.784 2°49.784 334.1 12.1 325 13.9
2009-02-27 09:23:40 51°19.795 2°49.772 334.2 12.1 326 14.4
2009-02-27 09:23:45 51°19.809 2°49.756 333.7 12.2 325 14.4
2009-02-27 09:23:50 51°19.823 2°49.741 333.5 12.1 326 14.7
2009-02-27 09:23:56 51°19.839 2°49.722 334 12.2 325 15
2009-02-27 09:24:00 51°19.851 2°49.71 334 12.2 325 15.3
2009-02-27 09:24:05 51°19.864 2°49.695 333.8 12.2 325 15.5
2009-02-27 09:24:10 51°19.878 2°49.679 333.9 12.2 326 15.8
2009-02-27 09:24:16 51°19.895 2°49.661 333.9 12.1 325 15.7
2009-02-27 09:24:20 51°19.906 2°49.649 333.5 12.1 326 16.1
2009-02-27 09:24:25 51°19.92 2°49.634 334.2 12.1 327 16.2
2009-02-27 09:24:30 51°19.934 2°49.619 335.2 12.2 326 16.7
2009-02-27 09:24:35 51°19.949 2°49.605 335.2 12 329 16.5
2009-02-27 09:24:40 51°19.962 2°49.59 336.2 12.2 325 16.8
2009-02-27 09:24:45 51°19.977 2°49.575 335.6 12.1 327 17
2009-02-27 09:24:50 51°19.991 2°49.561 335.7 12 327 17.3
2009-02-27 09:24:55 51°20.005 2°49.546 335.7 12.1 328 17.7
2009-02-27 09:25:00 51°20.019 2°49.532 335.9 12.2 327 17.8
2009-02-27 09:25:05 51°20.033 2°49.517 335.8 12.1 327 17.9
2009-02-27 09:25:10 51°20.047 2°49.502 335.9 12.2 327 18
2009-02-27 09:25:15 51°20.061 2°49.488 335.5 12.2 327 18.4
2009-02-27 09:25:20 51°20.076 2°49.472 335.5 12.2 326 18.7
2009-02-27 09:25:25 51°20.09 2°49.458 335.8 12.2 328 18.8
2009-02-27 09:25:30 51°20.104 2°49.442 336.2 12.3 325 19.1
2009-02-27 09:25:36 51°20.121 2°49.425 335.4 12.1 327 19.2
2009-02-27 09:25:40 51°20.132 2°49.412 335.6 12.2 326 19.4
2009-02-27 09:25:45 51°20.146 2°49.398 336 12.2 327 19.8
2009-02-27 09:25:50 51°20.16 2°49.383 335.8 12.2 326 19.8
2009-02-27 09:25:56 51°20.177 2°49.365 335.9 12.1 326 20
2009-02-27 09:26:00 51°20.188 2°49.353 335.5 12.2 325 20.1
2009-02-27 09:26:05 51°20.202 2°49.338 334.6 12 325 20.6
2009-02-27 09:26:10 51°20.216 2°49.323 334.7 12.1 326 20.8
2009-02-27 09:26:16 51°20.232 2°49.305 334.5 12 325 20.9
2009-02-27 09:26:20 51°20.244 2°49.293 334.2 12 326 21.1
2009-02-27 09:26:25 51°20.257 2°49.278 335 11.9 326 21.1
2009-02-27 09:26:30 51°20.271 2°49.263 334.7 12 326 21.3
2009-02-27 09:26:36 51°20.288 2°49.245 334.8 12.1 326 21.3
2009-02-27 09:26:40 51°20.299 2°49.234 335.4 12 326 21.4
2009-02-27 09:26:45 51°20.313 2°49.219 335.4 12 326 21.6
2009-02-27 09:26:50 51°20.327 2°49.204 335.3 12.1 326 21.8
2009-02-27 09:26:55 51°20.34 2°49.188 335.2 12.2 326 21.8
2009-02-27 09:27:00 51°20.355 2°49.173 334.7 12.2 325 21.9
2009-02-27 09:27:05 51°20.368 2°49.158 335 12 326 21.7
2009-02-27 09:27:10 51°20.382 2°49.143 334.9 12.1 325 21.9
2009-02-27 09:27:15 51°20.396 2°49.128 334.9 12 326 21.7
2009-02-27 09:27:20 51°20.41 2°49.113 335.2 12.1 326 21.9
2009-02-27 09:27:25 51°20.424 2°49.099 335.6 12.1 326 21.9
2009-02-27 09:27:30 51°20.438 2°49.084 336 12 328 21.8
2009-02-27 09:27:35 51°20.452 2°49.069 336.3 12.1 327 22
2009-02-27 09:27:40 51°20.466 2°49.055 336.3 12.2 328 21.9
2009-02-27 09:27:45 51°20.481 2°49.041 336.8 12.1 327 21.9
2009-02-27 09:27:50 51°20.495 2°49.027 337.1 12.1 329 21.9
2009-02-27 09:27:56 51°20.512 2°49.01 337.8 12.1 328 21.9
2009-02-27 09:28:00 51°20.524 2°48.999 338 12 330 21.9
2009-02-27 09:28:05 51°20.538 2°48.986 338.5 12.1 329 22
2009-02-27 09:28:10 51°20.552 2°48.972 338.7 12 330 22.2
2009-02-27 09:28:16 51°20.57 2°48.956 339 12.1 329 22
2009-02-27 09:28:20 51°20.581 2°48.944 338.6 12.1 329 22
2009-02-27 09:28:25 51°20.595 2°48.931 338.3 12.1 330 21.9
2009-02-27 09:28:30 51°20.61 2°48.918 339 12 329 21.9
2009-02-27 09:28:36 51°20.627 2°48.901 338.9 12 329 21.9
2009-02-27 09:28:40 51°20.638 2°48.889 337.8 12.1 328 22
2009-02-27 09:28:45 51°20.653 2°48.876 337.5 12.1 329 21.9
2009-02-27 09:28:50 51°20.667 2°48.862 338.3 12.1 329 21.8
2009-02-27 09:28:56 51°20.684 2°48.845 338.3 12.2 327 21.9
2009-02-27 09:29:00 51°20.696 2°48.833 337.6 12.2 328 21.8
2009-02-27 09:29:05 51°20.71 2°48.82 337.6 12.1 329 21.6
2009-02-27 09:29:10 51°20.725 2°48.806 338.4 12.2 329 21.7
2009-02-27 09:29:15 51°20.739 2°48.792 338.3 12.2 328 21.6
2009-02-27 09:29:20 51°20.754 2°48.778 337.9 12.2 329 21.6
2009-02-27 09:29:25 51°20.768 2°48.764 338.1 12.1 329 21.4
2009-02-27 09:29:30 51°20.782 2°48.75 338.2 12.1 329 21.4
2009-02-27 09:29:35 51°20.797 2°48.737 337.9 12.1 330 21.2
2009-02-27 09:29:40 51°20.812 2°48.723 338.5 12.2 331 21.1
2009-02-27 09:29:45 51°20.826 2°48.709 339.3 12.2 329 21.1
2009-02-27 09:29:50 51°20.841 2°48.696 338.5 12.1 330 20.8
2009-02-27 09:29:56 51°20.858 2°48.68 338.8 12.2 330 20.9
2009-02-27 09:30:00 51°20.87 2°48.669 338.8 12.1 331 20.6
2009-02-27 09:30:05 51°20.885 2°48.656 339 12.2 331 20.4
2009-02-27 09:30:10 51°20.9 2°48.644 339.7 12.2 333 20.3
2009-02-27 09:30:16 51°20.917 2°48.629 340.9 12.1 332 20.3
2009-02-27 09:30:20 51°20.929 2°48.62 341.1 12 334 20.1
2009-02-27 09:30:25 51°20.944 2°48.608 341.8 12 334 20.1
2009-02-27 09:30:30 51°20.959 2°48.596 342.3 12 333 20.2
2009-02-27 09:30:36 51°20.977 2°48.582 341.9 12 334 20.2
2009-02-27 09:30:40 51°20.989 2°48.573 342.7 12.1 334 20.1
2009-02-27 09:30:45 51°21.004 2°48.561 342.1 12.2 333 19.8
2009-02-27 09:30:50 51°21.019 2°48.549 342 12.2 334 19.9
2009-02-27 09:30:56 51°21.037 2°48.535 341.9 12.1 333 19.8
2009-02-27 09:31:00 51°21.05 2°48.526 341.7 12 335 19.7
2009-02-27 09:31:05 51°21.065 2°48.514 342.2 12 333 19.7
2009-02-27 09:31:10 51°21.08 2°48.502 342.3 12 334 19.5
2009-02-27 09:31:15 51°21.095 2°48.491 342.6 12 334 19.6
2009-02-27 09:31:20 51°21.11 2°48.479 342.4 12.1 335 19.6
2009-02-27 09:31:25 51°21.125 2°48.468 342.5 12.1 334 19.5
2009-02-27 09:31:30 51°21.14 2°48.456 342.2 12 335 19.6
2009-02-27 09:31:36 51°21.158 2°48.442 342.6 12.1 334 19.8
2009-02-27 09:31:40 51°21.17 2°48.433 341.9 12.1 334 19.8
2009-02-27 09:31:45 51°21.185 2°48.421 342.1 12 335 19.5
2009-02-27 09:31:50 51°21.2 2°48.41 342.2 12.1 333 20
2009-02-27 09:31:55 51°21.215 2°48.397 341.9 12.1 333 20.1
2009-02-27 09:32:00 51°21.23 2°48.385 341.6 12.1 333 20.2
2009-02-27 09:32:05 51°21.245 2°48.373 341.4 12.2 333 20.4
2009-02-27 09:32:10 51°21.26 2°48.36 341.9 12.2 332 20.6
2009-02-27 09:32:16 51°21.278 2°48.346 341.2 12.1 334 20.7
2009-02-27 09:32:20 51°21.29 2°48.336 341.3 12.2 332 20.9
2009-02-27 09:32:25 51°21.306 2°48.325 341.4 12.2 334 21
2009-02-27 09:32:30 51°21.32 2°48.312 341.9 12.2 332 21
2009-02-27 09:32:36 51°21.339 2°48.297 341.7 12.2 333 21
2009-02-27 09:32:40 51°21.35 2°48.287 340.9 12.2 332 20.9
2009-02-27 09:32:45 51°21.365 2°48.275 340.9 12.1 332 21.1
2009-02-27 09:32:50 51°21.381 2°48.263 340.8 12 335 21.1
2009-02-27 09:32:56 51°21.398 2°48.248 342.5 12.2 330 21.3
2009-02-27 09:33:00 51°21.41 2°48.238 340.4 12.1 335 21.6
2009-02-27 09:33:05 51°21.425 2°48.226 341.1 12.2 331 21.7
2009-02-27 09:33:10 51°21.44 2°48.212 340.5 12.2 332 22
2009-02-27 09:33:16 51°21.458 2°48.197 340.3 12.2 331 22.3
2009-02-27 09:33:20 51°21.47 2°48.187 340.5 12 333 22.2
2009-02-27 09:33:25 51°21.485 2°48.174 340.9 12.1 331 22.4
2009-02-27 09:33:30 51°21.5 2°48.162 340.9 12 333 22.4
2009-02-27 09:33:36 51°21.517 2°48.147 341.8 12.1 332 22.3
2009-02-27 09:33:40 51°21.529 2°48.136 341.7 12 332 22.5
2009-02-27 09:33:45 51°21.544 2°48.125 341.3 12 333 22.4
2009-02-27 09:33:50 51°21.558 2°48.111 341.7 12 331 22.4
2009-02-27 09:33:55 51°21.574 2°48.1 340.8 12 334 22.4
2009-02-27 09:34:00 51°21.588 2°48.085 341.3 12.2 328 22.6
2009-02-27 09:34:05 51°21.603 2°48.075 339.9 12 336 22.5
2009-02-27 09:34:10 51°21.617 2°48.06 341.7 12.2 327 22.7
2009-02-27 09:34:16 51°21.635 2°48.046 340.3 12 334 22.4
2009-02-27 09:34:20 51°21.647 2°48.034 340.9 12.2 328 22.5
2009-02-27 09:34:25 51°21.661 2°48.022 340.1 12 333 22.6
2009-02-27 09:34:30 51°21.676 2°48.009 340.4 12.1 330 22.9
2009-02-27 09:34:36 51°21.694 2°47.993 340.4 12.1 331 22.8
2009-02-27 09:34:40 51°21.706 2°47.983 339.8 12 332 22.4
2009-02-27 09:34:45 51°21.72 2°47.97 340.5 12.2 331 22.4
2009-02-27 09:34:50 51°21.735 2°47.958 340.7 12.1 333 22.9
2009-02-27 09:34:55 51°21.75 2°47.945 341.4 12.2 331 22.7
2009-02-27 09:35:00 51°21.765 2°47.932 341.2 12.2 331 22.8
2009-02-27 09:35:05 51°21.78 2°47.919 340.9 12.2 332 23.1
2009-02-27 09:35:10 51°21.795 2°47.906 340.7 12.3 331 23.3
2009-02-27 09:35:16 51°21.813 2°47.891 340.4 12.2 333 23.1
2009-02-27 09:35:20 51°21.825 2°47.881 341 12.3 332 23.2
2009-02-27 09:35:25 51°21.84 2°47.868 341.6 12.3 332 23.3
2009-02-27 09:35:30 51°21.855 2°47.856 341.3 12.2 334 23.5
2009-02-27 09:35:36 51°21.873 2°47.841 342 12.3 332 23.2
2009-02-27 09:35:40 51°21.885 2°47.831 341.7 12.2 333 23.1
2009-02-27 09:35:45 51°21.9 2°47.819 341.9 12.1 333 22.9
2009-02-27 09:35:50 51°21.915 2°47.807 341.9 12.2 333 23
2009-02-27 09:35:56 51°21.933 2°47.792 341.9 12.2 334 23.1
2009-02-27 09:36:00 51°21.945 2°47.782 342.1 12.3 332 22.8
2009-02-27 09:36:05 51°21.96 2°47.77 341.6 12.1 334 23
2009-02-27 09:36:10 51°21.976 2°47.758 341.9 12.1 333 22.7
2009-02-27 09:36:15 51°21.991 2°47.745 341.9 12.2 333 23
2009-02-27 09:36:20 51°22.006 2°47.733 341.2 12.3 333 23.4
2009-02-27 09:36:25 51°22.021 2°47.72 340.6 12.3 332 22.9
2009-02-27 09:36:30 51°22.035 2°47.707 340.5 12.2 332 23
2009-02-27 09:36:36 51°22.054 2°47.693 340.4 12.1 334 23.2
2009-02-27 09:36:40 51°22.066 2°47.684 340.8 12.1 333 23.1
2009-02-27 09:36:45 51°22.081 2°47.672 341.2 12 334 23.2
2009-02-27 09:36:50 51°22.096 2°47.66 341.7 12 334 22.9
2009-02-27 09:36:55 51°22.11 2°47.649 341.8 11.9 334 23.2
2009-02-27 09:37:00 51°22.125 2°47.637 341.6 11.9 334 23.1
2009-02-27 09:37:05 51°22.14 2°47.625 341.8 11.9 332 23
2009-02-27 09:37:10 51°22.155 2°47.613 340.5 11.7 334 22.8
2009-02-27 09:37:16 51°22.172 2°47.599 340.5 11.8 334 22.5
2009-02-27 09:37:20 51°22.184 2°47.59 341.2 11.8 333 22.4
2009-02-27 09:37:25 51°22.198 2°47.578 341.2 11.9 333 22
2009-02-27 09:37:31 51°22.216 2°47.564 341.2 11.8 333 21.9
2009-02-27 09:37:36 51°22.231 2°47.553 341.4 11.8 334 21.3
2009-02-27 09:37:40 51°22.242 2°47.543 342 11.8 333 20.4
2009-02-27 09:37:45 51°22.257 2°47.532 341.9 11.8 335 20.5
2009-02-27 09:37:50 51°22.272 2°47.52 342 11.9 333 20.6
2009-02-27 09:37:56 51°22.289 2°47.506 341.7 11.8 335 20.3
2009-02-27 09:38:00 51°22.301 2°47.498 341.9 11.7 334 19.5
2009-02-27 09:38:05 51°22.315 2°47.486 342.2 11.7 334 19.1
2009-02-27 09:38:10 51°22.33 2°47.475 342 11.7 333 18.8
2009-02-27 09:38:16 51°22.347 2°47.46 341.5 11.7 334 18.1
2009-02-27 09:38:20 51°22.359 2°47.451 341.7 11.6 333 17.3
2009-02-27 09:38:25 51°22.373 2°47.439 341.6 11.6 333 17.8
2009-02-27 09:38:30 51°22.388 2°47.428 341.4 11.5 334 17.2
2009-02-27 09:38:36 51°22.405 2°47.414 341.7 11.6 332 16.6
2009-02-27 09:38:40 51°22.416 2°47.404 341.2 11.5 333 15.2
2009-02-27 09:38:45 51°22.43 2°47.392 341.4 11.4 331 12
2009-02-27 09:38:50 51°22.444 2°47.379 341.2 11.3 331 12.7
2009-02-27 09:38:55 51°22.458 2°47.368 340.6 11.4 333 15.7
2009-02-27 09:39:00 51°22.472 2°47.356 341.4 11.4 333 17.5
2009-02-27 09:39:05 51°22.486 2°47.345 342.4 11.4 333 17.9
2009-02-27 09:39:10 51°22.5 2°47.334 341.9 11.4 333 18.4
2009-02-27 09:39:15 51°22.514 2°47.323 341.1 11.4 335 18.7
2009-02-27 09:39:20 51°22.529 2°47.311 341.6 11.5 331 18.6
2009-02-27 09:39:25 51°22.543 2°47.299 341 11.5 334 18.5
2009-02-27 09:39:30 51°22.557 2°47.287 341.2 11.6 331 18.3
2009-02-27 09:39:36 51°22.574 2°47.274 341 11.5 335 18.3
2009-02-27 09:39:40 51°22.586 2°47.264 341.9 11.6 331 18.3
2009-02-27 09:39:45 51°22.6 2°47.253 341.5 11.6 335 17.9
2009-02-27 09:39:50 51°22.614 2°47.241 341.9 11.6 331 17.2
2009-02-27 09:39:56 51°22.631 2°47.226 341.9 11.6 333 16.7
2009-02-27 09:40:00 51°22.643 2°47.216 341.9 11.6 330 16.2
2009-02-27 09:40:05 51°22.657 2°47.203 340.9 11.6 331 15.8
2009-02-27 09:40:10 51°22.671 2°47.19 340.4 11.7 330 15.4
2009-02-27 09:40:16 51°22.687 2°47.175 340.4 11.6 329 15.7
2009-02-27 09:40:20 51°22.699 2°47.164 340 11.5 328 15.5
2009-02-27 09:40:25 51°22.712 2°47.151 339.3 11.5 330 15.4
2009-02-27 09:40:30 51°22.726 2°47.138 339.8 11.6 330 15.4
2009-02-27 09:40:35 51°22.74 2°47.125 340 11.6 330 14.6
2009-02-27 09:40:40 51°22.754 2°47.112 340.3 11.6 330 14.5
2009-02-27 09:40:45 51°22.768 2°47.099 340.8 11.7 330 15.4
2009-02-27 09:40:50 51°22.782 2°47.086 340.5 11.6 330 16.5
2009-02-27 09:40:55 51°22.796 2°47.074 340.4 11.6 332 17.5
2009-02-27 09:41:00 51°22.81 2°47.062 341 11.7 333 18.4
2009-02-27 09:41:05 51°22.825 2°47.05 342.1 11.5 333 18.9
2009-02-27 09:41:10 51°22.839 2°47.037 342.1 11.6 330 19.8
2009-02-27 09:41:15 51°22.853 2°47.026 340.9 11.5 335 20.6
2009-02-27 09:41:20 51°22.867 2°47.014 342.1 11.7 329 20.6
2009-02-27 09:41:25 51°22.882 2°47.001 341.1 11.7 332 20.6
2009-02-27 09:41:30 51°22.896 2°46.989 341.4 11.7 332 20.6
2009-02-27 09:41:36 51°22.913 2°46.975 341.2 11.8 333 20.6
2009-02-27 09:41:40 51°22.924 2°46.964 341.2 11.7 331 20.6
2009-02-27 09:41:45 51°22.939 2°46.952 341.2 11.7 332 20.6
2009-02-27 09:41:50 51°22.953 2°46.939 340.7 11.8 330 20.9
2009-02-27 09:41:56 51°22.97 2°46.924 340.1 11.7 332 20.9
2009-02-27 09:42:00 51°22.982 2°46.914 340.3 11.8 329 20.8
2009-02-27 09:42:05 51°22.996 2°46.901 340.2 11.7 332 21.1
2009-02-27 09:42:10 51°23.01 2°46.888 340.4 11.7 331 21.2
2009-02-27 09:42:16 51°23.027 2°46.873 340.5 11.8 331 20.9
2009-02-27 09:42:20 51°23.038 2°46.862 340.6 11.7 329 20.9
2009-02-27 09:42:25 51°23.052 2°46.85 340.2 11.6 331 20.5
2009-02-27 09:42:30 51°23.066 2°46.836 341 11.8 330 20.3
2009-02-27 09:42:36 51°23.084 2°46.821 340.5 11.7 332 20
2009-02-27 09:42:40 51°23.095 2°46.812 341.2 11.7 331 19.2
2009-02-27 09:42:45 51°23.109 2°46.799 341 11.8 330 18.7
2009-02-27 09:42:50 51°23.123 2°46.786 341.2 11.7 331 17.9
2009-02-27 09:42:56 51°23.14 2°46.77 341.3 11.8 329 17.5
2009-02-27 09:43:00 51°23.152 2°46.761 341.2 11.7 332 17.9
2009-02-27 09:43:05 51°23.166 2°46.748 341.9 11.7 331 19.1
2009-02-27 09:43:10 51°23.18 2°46.736 341.9 11.7 331 20.2
2009-02-27 09:43:15 51°23.195 2°46.725 341.6 11.6 334 21.4
2009-02-27 09:43:20 51°23.209 2°46.713 342.9 11.7 332 22.1
2009-02-27 09:43:25 51°23.223 2°46.7 342.7 11.8 328 23
2009-02-27 09:43:30 51°23.237 2°46.686 339.6 11.7 328 23.5
2009-02-27 09:43:35 51°23.25 2°46.67 337.6 11.8 322 24
2009-02-27 09:43:40 51°23.263 2°46.654 333.8 11.7 323 24.2
2009-02-27 09:43:45 51°23.275 2°46.637 331.5 11.9 317 24.4
2009-02-27 09:43:50 51°23.288 2°46.62 328.7 11.8 318 23.6
2009-02-27 09:43:56 51°23.301 2°46.597 328 11.9 314 21.5
2009-02-27 09:44:00 51°23.311 2°46.582 325.4 12 315 21.6
2009-02-27 09:44:05 51°23.322 2°46.562 323.6 12.1 313 22.8
2009-02-27 09:44:10 51°23.334 2°46.542 322.5 12.2 311 23.1
2009-02-27 09:44:16 51°23.347 2°46.518 321.2 12.2 313 24
2009-02-27 09:44:20 51°23.356 2°46.502 321 12.3 310 24.3
2009-02-27 09:44:25 51°23.366 2°46.48 319.6 12.3 308 24.8
2009-02-27 09:44:30 51°23.377 2°46.459 318.2 12.3 309 25.2
2009-02-27 09:44:36 51°23.389 2°46.432 317.9 12.4 306 25.3
2009-02-27 09:44:40 51°23.398 2°46.415 316.5 12.4 308 25.2
2009-02-27 09:44:45 51°23.408 2°46.393 316.3 12.4 304 23.6
2009-02-27 09:44:50 51°23.418 2°46.371 316 12.4 307 23.8
2009-02-27 09:44:56 51°23.429 2°46.343 315.2 12.5 302 24.5
2009-02-27 09:45:00 51°23.437 2°46.325 313.4 12.4 303 25.4
2009-02-27 09:45:05 51°23.446 2°46.301 312.1 12.5 302 25.7
2009-02-27 09:45:10 51°23.455 2°46.277 311.5 12.5 300 25.8
2009-02-27 09:45:15 51°23.464 2°46.254 310.3 12.4 302 26.3
2009-02-27 09:45:20 51°23.472 2°46.23 310.7 12.5 297 26.3
2009-02-27 09:45:25 51°23.48 2°46.204 308 12.6 297 26.6
2009-02-27 09:45:30 51°23.488 2°46.18 306.6 12.6 296 26.6
2009-02-27 09:45:35 51°23.495 2°46.154 305.1 12.7 293 26.5
2009-02-27 09:45:40 51°23.502 2°46.128 303.6 12.7 294 26.9
2009-02-27 09:45:45 51°23.509 2°46.102 302.5 12.8 292 26.3
2009-02-27 09:45:50 51°23.516 2°46.075 301.3 12.8 292 26.5
2009-02-27 09:45:56 51°23.523 2°46.043 300.9 12.9 290 26.5
2009-02-27 09:46:00 51°23.528 2°46.022 300 12.8 291 27.1
2009-02-27 09:46:05 51°23.535 2°45.995 299.8 12.8 291 27
2009-02-27 09:46:10 51°23.541 2°45.968 299.8 12.9 291 27
2009-02-27 09:46:16 51°23.548 2°45.936 299.5 13 290 27.4
2009-02-27 09:46:20 51°23.553 2°45.915 299.3 13 291 27.1
2009-02-27 09:46:25 51°23.56 2°45.888 299.2 12.9 291 27.2
2009-02-27 09:46:30 51°23.566 2°45.861 299.5 12.9 290 27.4
2009-02-27 09:46:36 51°23.574 2°45.828 299.5 13 292 27
2009-02-27 09:46:40 51°23.579 2°45.807 299.8 13 291 26.7
2009-02-27 09:46:45 51°23.585 2°45.78 300.2 12.9 291 26.5
2009-02-27 09:46:51 51°23.594 2°45.748 299.9 13 292 27.2
2009-02-27 09:46:56 51°23.6 2°45.721 300.5 13 291 26.8
2009-02-27 09:47:00 51°23.605 2°45.7 300.2 12.9 292 26.6
2009-02-27 09:47:05 51°23.612 2°45.674 300.7 13 294 26.1
2009-02-27 09:47:10 51°23.619 2°45.648 302.6 13 293 26.6
2009-02-27 09:47:15 51°23.627 2°45.621 302.7 12.8 296 26.9
2009-02-27 09:47:20 51°23.635 2°45.596 303.9 12.8 296 26.6
2009-02-27 09:47:25 51°23.642 2°45.571 305.6 12.7 297 27.3
2009-02-27 09:47:30 51°23.651 2°45.546 306.1 12.7 299 27.2
2009-02-27 09:47:36 51°23.661 2°45.517 307.6 12.6 299 26.9
2009-02-27 09:47:40 51°23.669 2°45.498 309.3 12.6 302 26.6
2009-02-27 09:47:45 51°23.678 2°45.474 310.4 12.5 302 26.7
2009-02-27 09:47:50 51°23.688 2°45.451 311.8 12.5 306 26.3
2009-02-27 09:47:56 51°23.7 2°45.423 313.8 12.6 305 26.7
2009-02-27 09:48:00 51°23.708 2°45.405 314.6 12.6 307 26.8
2009-02-27 09:48:05 51°23.719 2°45.384 316.7 12.5 310 26.8
2009-02-27 09:48:10 51°23.73 2°45.362 318.7 12.5 309 26.7
2009-02-27 09:48:16 51°23.744 2°45.339 319.4 12.3 315 26.7
2009-02-27 09:48:20 51°23.753 2°45.322 322.1 12.3 312 26.7
2009-02-27 09:48:25 51°23.766 2°45.304 324 12.1 320 26.4
2009-02-27 09:48:30 51°23.778 2°45.287 327.3 12.2 317 26.4
2009-02-27 09:48:36 51°23.794 2°45.266 328.6 11.9 323 26.9
2009-02-27 09:48:40 51°23.805 2°45.256 331.3 11.7 328 26.5
2009-02-27 09:48:45 51°23.819 2°45.243 336.3 11.5 332 26.6
2009-02-27 09:48:50 51°23.834 2°45.233 342.6 11.5 336 25.8
2009-02-27 09:48:56 51°23.851 2°45.22 345.2 11.5 336 26
2009-02-27 09:49:00 51°23.863 2°45.215 347 11.3 342 25.1
2009-02-27 09:49:05 51°23.878 2°45.205 349.8 11.4 340 25.5
2009-02-27 09:49:10 51°23.893 2°45.201 351.5 11.2 347 26
2009-02-27 09:49:16 51°23.911 2°45.192 355.4 11.3 345 26.3
2009-02-27 09:49:20 51°23.923 2°45.19 357.2 11.1 353 26.3
2009-02-27 09:49:25 51°23.938 2°45.186 0.4 11.1 352 26.5
2009-02-27 09:49:30 51°23.953 2°45.185 2.4 10.9 357 26.3
2009-02-27 09:49:36 51°23.972 2°45.185 5.7 10.9 1 26.6
2009-02-27 09:49:40 51°23.984 2°45.185 9.3 10.9 1 25.3
2009-02-27 09:49:45 51°23.998 2°45.189 10.9 10.8 8 26.7
2009-02-27 09:49:50 51°24.014 2°45.189 14.2 10.9 2 26.5
2009-02-27 09:49:55 51°24.028 2°45.194 13.4 10.6 11 26.4
2009-02-27 09:50:00 51°24.043 2°45.199 16.5 10.6 12 25.8
2009-02-27 09:50:05 51°24.057 2°45.202 19.1 10.7 10 26.5
2009-02-27 09:50:10 51°24.071 2°45.21 19.7 10.5 18 26.3
2009-02-27 09:50:16 51°24.089 2°45.215 22.3 10.8 11 26.3
2009-02-27 09:50:20 51°24.1 2°45.223 21.9 10.6 22 25.7
2009-02-27 09:50:25 51°24.113 2°45.231 26 10.6 17 25.9
2009-02-27 09:50:30 51°24.127 2°45.239 26.9 10.5 23 26.4
2009-02-27 09:50:36 51°24.142 2°45.252 29.1 10.4 25 26.1
2009-02-27 09:50:40 51°24.153 2°45.26 31.2 10.5 26 26.2
2009-02-27 09:50:45 51°24.165 2°45.272 32.8 10.4 31 25.8
2009-02-27 09:50:50 51°24.178 2°45.284 34.9 10.6 30 26.3
2009-02-27 09:50:56 51°24.193 2°45.298 34.8 10.5 32 26.3
2009-02-27 09:51:00 51°24.203 2°45.308 36.2 10.5 31 25.8
2009-02-27 09:51:05 51°24.215 2°45.321 37.2 10.6 32 25.5
2009-02-27 09:51:11 51°24.229 2°45.337 37.7 10.4 35 26.4
2009-02-27 09:51:16 51°24.241 2°45.351 40 10.4 36 26.1
2009-02-27 09:51:20 51°24.25 2°45.361 40.9 10.4 35 26
2009-02-27 09:51:25 51°24.261 2°45.377 41.5 10.2 39 26.1
2009-02-27 09:51:30 51°24.273 2°45.39 43 10.3 36 25.7
2009-02-27 09:51:36 51°24.285 2°45.409 43.1 10.5 41 25.9
2009-02-27 09:51:40 51°24.295 2°45.419 44.1 10.5 33 24.7
2009-02-27 09:51:45 51°24.305 2°45.436 43.1 10.4 46 26
2009-02-27 09:51:50 51°24.317 2°45.449 45.5 10.5 35 26.3
2009-02-27 09:51:55 51°24.327 2°45.465 43.7 10.3 46 26.1
2009-02-27 09:52:00 51°24.338 2°45.481 45.1 10.4 40 26.4
2009-02-27 09:52:05 51°24.349 2°45.496 45.8 10.5 46 26
2009-02-27 09:52:10 51°24.359 2°45.513 46.5 10.4 45 26
2009-02-27 09:52:16 51°24.371 2°45.533 48 10.4 46 26
2009-02-27 09:52:20 51°24.379 2°45.546 48.5 10.4 47 25.8
2009-02-27 09:52:25 51°24.388 2°45.564 50.2 10.4 47 25.9
2009-02-27 09:52:30 51°24.398 2°45.58 50.9 10.3 47 25.2
2009-02-27 09:52:36 51°24.409 2°45.602 51.4 10.3 49 24.7
2009-02-27 09:52:40 51°24.417 2°45.615 51.6 10.3 47 26
2009-02-27 09:52:45 51°24.426 2°45.633 51.1 10.4 51 25.6
2009-02-27 09:52:50 51°24.436 2°45.65 51.9 10.5 49 25.8
2009-02-27 09:52:55 51°24.444 2°45.669 52.5 10.5 53 25.5
2009-02-27 09:53:00 51°24.454 2°45.686 53.7 10.5 48 25.5
2009-02-27 09:53:05 51°24.462 2°45.706 53.1 10.5 54 25.6
2009-02-27 09:53:10 51°24.471 2°45.723 54.5 10.5 51 25.8
2009-02-27 09:53:16 51°24.482 2°45.747 55.4 10.6 54 25.5
2009-02-27 09:53:20 51°24.489 2°45.761 55.4 10.6 53 25.7
2009-02-27 09:53:25 51°24.497 2°45.78 56 10.4 54 25.5
2009-02-27 09:53:31 51°24.507 2°45.804 56.1 10.5 55 25.4
2009-02-27 09:53:36 51°24.515 2°45.822 56.7 10.4 55 24.9
2009-02-27 09:53:40 51°24.522 2°45.837 56.7 10.3 54 25.1
2009-02-27 09:53:45 51°24.529 2°45.857 57.3 10.5 58 25.2
2009-02-27 09:53:50 51°24.539 2°45.875 58 10.5 51 25.1
2009-02-27 09:53:56 51°24.548 2°45.899 55.7 10.5 60 25.2
2009-02-27 09:54:00 51°24.555 2°45.914 57.7 10.4 54 25.2
2009-02-27 09:54:05 51°24.563 2°45.933 57.1 10.4 58 24.9
2009-02-27 09:54:10 51°24.571 2°45.951 57.1 10.3 55 25
2009-02-27 09:54:16 51°24.581 2°45.975 57.3 10.5 58 24.9
2009-02-27 09:54:20 51°24.587 2°45.991 58.1 10.6 57 24.6
2009-02-27 09:54:25 51°24.595 2°46.011 58.7 10.7 58 24.6
2009-02-27 09:54:30 51°24.603 2°46.031 59.4 10.6 56 24.9
2009-02-27 09:54:36 51°24.612 2°46.055 58.9 10.6 58 24.9
2009-02-27 09:54:40 51°24.619 2°46.07 58.9 10.5 54 24.8
2009-02-27 09:54:45 51°24.627 2°46.089 56.9 10.5 57 24.6
2009-02-27 09:54:50 51°24.635 2°46.108 56.9 10.6 54 24.6
2009-02-27 09:54:55 51°24.644 2°46.127 57.2 10.5 56 24.4
2009-02-27 09:55:00 51°24.652 2°46.146 57 10.5 56 24.8
2009-02-27 09:55:05 51°24.66 2°46.166 57.7 10.6 54 24.7
2009-02-27 09:55:10 51°24.669 2°46.185 57.4 10.6 54 24.4
2009-02-27 09:55:16 51°24.678 2°46.208 56.4 10.5 57 24.4
2009-02-27 09:55:20 51°24.685 2°46.223 57.3 10.5 56 24.2
2009-02-27 09:55:25 51°24.693 2°46.242 57.4 10.6 53 24.5
2009-02-27 09:55:31 51°24.703 2°46.266 56.6 10.5 58 24.6
2009-02-27 09:55:36 51°24.712 2°46.284 57.7 10.5 53 24.6
2009-02-27 09:55:40 51°24.718 2°46.299 56.3 10.5 57 24.6
2009-02-27 09:55:45 51°24.726 2°46.319 56.4 10.5 54 24.8
2009-02-27 09:55:50 51°24.735 2°46.338 56.7 10.5 55 24.4
2009-02-27 09:55:56 51°24.746 2°46.359 56.1 10.5 51 25
2009-02-27 09:56:00 51°24.752 2°46.375 54.7 10.6 59 25.5
2009-02-27 09:56:05 51°24.761 2°46.393 57 10.5 50 25.3
2009-02-27 09:56:11 51°24.77 2°46.417 55.5 10.5 58 25.1
2009-02-27 09:56:16 51°24.779 2°46.436 56.4 10.5 54 24.6
2009-02-27 09:56:20 51°24.786 2°46.451 57 10.5 55 24.8
2009-02-27 09:56:25 51°24.794 2°46.47 56.8 10.5 54 24.7
2009-02-27 09:56:30 51°24.803 2°46.488 56.4 10.6 56 25.5
2009-02-27 09:56:36 51°24.813 2°46.512 56.4 10.6 55 25.1
2009-02-27 09:56:40 51°24.82 2°46.526 56.2 10.4 54 24.7
2009-02-27 09:56:45 51°24.827 2°46.547 56.3 10.4 56 25.1
2009-02-27 09:56:50 51°24.837 2°46.564 56.6 10.5 50 25.4
2009-02-27 09:56:55 51°24.844 2°46.584 55.7 10.5 58 25.1
2009-02-27 09:57:00 51°24.854 2°46.603 56.9 10.6 52 25.2
2009-02-27 09:57:05 51°24.861 2°46.622 56.4 10.4 56 24.5
2009-02-27 09:57:10 51°24.869 2°46.642 56.6 10.4 57 24.6
2009-02-27 09:57:15 51°24.879 2°46.66 56.6 10.6 53 24.9
2009-02-27 09:57:20 51°24.886 2°46.68 55.9 10.6 59 25.1
2009-02-27 09:57:25 51°24.895 2°46.698 57 10.5 52 25.3
2009-02-27 09:57:30 51°24.903 2°46.718 56.2 10.6 58 25.2
2009-02-27 09:57:36 51°24.913 2°46.741 57.5 10.7 54 24.8
2009-02-27 09:57:40 51°24.919 2°46.757 57 10.6 57 24.7
2009-02-27 09:57:45 51°24.928 2°46.776 57.6 10.6 56 24.5
2009-02-27 09:57:50 51°24.936 2°46.796 58.1 10.7 58 24.5
2009-02-27 09:57:56 51°24.945 2°46.82 58.1 10.6 56 24.7
2009-02-27 09:58:00 51°24.951 2°46.836 58.2 10.6 61 24.7
2009-02-27 09:58:05 51°24.959 2°46.856 60.1 10.6 56 24.7
2009-02-27 09:58:10 51°24.967 2°46.876 59.1 10.6 58 24.7
2009-02-27 09:58:16 51°24.977 2°46.899 58.9 10.5 56 24.8
2009-02-27 09:58:20 51°24.982 2°46.915 58.6 10.5 59 24.8
2009-02-27 09:58:25 51°24.99 2°46.935 59.1 10.5 57 24.6
2009-02-27 09:58:31 51°25 2°46.958 59.3 10.4 58 24.9
2009-02-27 09:58:36 51°25.007 2°46.978 58.9 10.4 57 25
2009-02-27 09:58:40 51°25.014 2°46.993 58.9 10.4 56 24.8
2009-02-27 09:58:45 51°25.021 2°47.013 58.5 10.5 60 24.8
2009-02-27 09:58:50 51°25.029 2°47.032 59.3 10.5 55 24.8
2009-02-27 09:58:55 51°25.037 2°47.052 58.7 10.6 60 24.5
2009-02-27 09:59:00 51°25.045 2°47.071 59.5 10.6 55 24.4
2009-02-27 09:59:05 51°25.053 2°47.091 58.2 10.5 57 24.6
2009-02-27 09:59:10 51°25.061 2°47.111 57.9 10.5 57 24.7
2009-02-27 09:59:15 51°25.069 2°47.129 58 10.5 54 24.8
2009-02-27 09:59:20 51°25.077 2°47.148 56.7 10.4 57 24.9
2009-02-27 09:59:25 51°25.085 2°47.168 57.7 10.2 53 24.7
2009-02-27 09:59:30 51°25.094 2°47.186 56.8 10.3 56 24.8
2009-02-27 09:59:36 51°25.103 2°47.21 57.8 10.5 56 24.7
2009-02-27 09:59:40 51°25.11 2°47.224 58.1 10.6 52 24.5
2009-02-27 09:59:45 51°25.117 2°47.245 57 10.5 57 24.5
2009-02-27 09:59:50 51°25.126 2°47.263 57.4 10.5 54 24.7
2009-02-27 09:59:56 51°25.136 2°47.287 57.4 10.5 56 24.8
2009-02-27 10:00:00 51°25.143 2°47.302 56.9 10.5 54 24.7
2009-02-27 10:00:05 51°25.15 2°47.322 57.1 10.5 56 24.7
2009-02-27 10:00:10 51°25.159 2°47.34 57.4 10.5 54 24.9
2009-02-27 10:00:16 51°25.168 2°47.364 57.4 10.4 60 24.6
2009-02-27 10:00:20 51°25.175 2°47.379 58.2 10.4 54 24.5
2009-02-27 10:00:25 51°25.182 2°47.399 58 10.5 58 24.6
2009-02-27 10:00:31 51°25.193 2°47.421 57.8 10.5 55 24.8
2009-02-27 10:00:36 51°25.201 2°47.441 57.1 10.5 56 25.1
2009-02-27 10:00:40 51°25.207 2°47.456 57 10.5 54 25
2009-02-27 10:00:45 51°25.216 2°47.475 57.3 10.6 57 24.8
2009-02-27 10:00:50 51°25.224 2°47.495 57.4 10.6 55 25.2
2009-02-27 10:00:56 51°25.234 2°47.518 57.3 10.6 54 24.9
2009-02-27 10:01:00 51°25.241 2°47.533 57.2 10.6 54 25.7
2009-02-27 10:01:05 51°25.249 2°47.553 57.7 10.5 55 26.4
2009-02-27 10:01:10 51°25.258 2°47.572 56.9 10.6 54 26.7
2009-02-27 10:01:15 51°25.266 2°47.592 57.5 10.6 58 26.7
2009-02-27 10:01:20 51°25.274 2°47.612 58.2 10.7 55 26.7
2009-02-27 10:01:25 51°25.282 2°47.631 57.8 10.5 56 26.5